createdAt,value
2022-12-20T00:01:00.783Z,10.50
2022-12-20T00:03:27.314Z,8.50
2022-12-20T00:05:54.115Z,9.80
2022-12-20T00:08:21.129Z,8.87
2022-12-20T00:10:47.962Z,10.33
2022-12-20T00:13:14.773Z,9.17
2022-12-20T00:15:41.472Z,8.67
2022-12-20T00:18:08.162Z,9.37
2022-12-20T00:20:35.445Z,9.90
2022-12-20T00:23:02.639Z,11.00
2022-12-20T00:25:29.469Z,8.70
2022-12-20T00:27:56.098Z,10.83
2022-12-20T00:30:22.958Z,10.17
2022-12-20T00:32:49.828Z,10.40
2022-12-20T00:35:16.497Z,8.97
2022-12-20T00:37:43.239Z,9.90
2022-12-20T00:40:10.265Z,10.23
2022-12-20T00:42:36.825Z,11.17
2022-12-20T00:45:04.233Z,10.37
2022-12-20T00:47:30.760Z,9.80
2022-12-20T00:49:57.417Z,8.87
2022-12-20T00:52:24.004Z,11.57
2022-12-20T00:54:50.629Z,10.27
2022-12-20T00:57:17.238Z,9.50
2022-12-20T00:59:43.974Z,9.63
2022-12-20T01:02:10.693Z,9.20
2022-12-20T01:04:37.391Z,8.07
2022-12-20T01:07:04.064Z,11.00
2022-12-20T01:09:31.562Z,11.43
2022-12-20T01:11:58.291Z,10.47
2022-12-20T01:14:24.947Z,11.23
2022-12-20T01:16:51.716Z,10.53
2022-12-20T01:19:18.847Z,9.87
2022-12-20T01:21:45.623Z,10.63
2022-12-20T01:24:13.954Z,10.80
2022-12-20T01:26:40.711Z,12.40
2022-12-20T01:29:07.577Z,11.67
2022-12-20T01:31:34.912Z,11.07
2022-12-20T01:34:02.335Z,13.70
2022-12-20T01:36:31.331Z,11.90
2022-12-20T01:39:03.780Z,12.17
2022-12-20T01:41:36.473Z,10.47
2022-12-20T01:44:18.404Z,10.30
2022-12-20T01:46:47.309Z,12.87
2022-12-20T01:49:43.201Z,12.93
2022-12-20T01:52:13.782Z,13.80
2022-12-20T01:54:51.545Z,10.93
2022-12-20T01:57:23.794Z,16.37
2022-12-20T01:59:51.539Z,14.20
2022-12-20T02:02:18.526Z,15.07
2022-12-20T02:04:45.363Z,12.17
2022-12-20T02:07:18.130Z,12.57
2022-12-20T02:09:45.205Z,13.97
2022-12-20T02:12:21.328Z,14.30
2022-12-20T02:15:00.127Z,12.57
2022-12-20T02:17:36.366Z,13.40
2022-12-20T02:20:40.445Z,14.87
2022-12-20T02:23:26.117Z,14.43
2022-12-20T02:26:19.877Z,12.67
2022-12-20T02:32:09.062Z,12.87
2022-12-20T02:34:37.069Z,14.37
2022-12-20T02:37:03.938Z,12.90
2022-12-20T02:39:31.339Z,14.23
2022-12-20T02:42:01.977Z,10.93
2022-12-20T02:44:49.180Z,13.87
2022-12-20T02:47:24.977Z,13.53
2022-12-20T02:49:51.622Z,13.53
2022-12-20T02:52:19.031Z,14.23
2022-12-20T02:54:45.620Z,13.23
2022-12-20T02:57:22.960Z,11.67
2022-12-20T02:59:56.996Z,12.83
2022-12-20T03:02:24.652Z,17.13
2022-12-20T03:04:51.593Z,13.57
2022-12-20T03:07:18.111Z,12.87
2022-12-20T03:09:44.966Z,17.57
2022-12-20T03:12:12.743Z,14.50
2022-12-20T03:14:40.223Z,14.63
2022-12-20T03:17:07.514Z,14.47
2022-12-20T03:19:33.971Z,13.30
2022-12-20T03:22:00.425Z,14.50
2022-12-20T03:24:26.929Z,14.63
2022-12-20T03:26:53.412Z,13.73
2022-12-20T03:29:19.862Z,12.73
2022-12-20T03:31:46.285Z,11.80
2022-12-20T03:34:12.743Z,13.50
2022-12-20T03:36:39.201Z,12.77
2022-12-20T03:39:05.673Z,13.50
2022-12-20T03:41:32.096Z,15.67
2022-12-20T03:43:58.863Z,14.40
2022-12-20T03:46:25.776Z,11.57
2022-12-20T03:48:52.265Z,13.70
2022-12-20T03:51:18.690Z,13.37
2022-12-20T03:53:45.122Z,12.17
2022-12-20T03:56:11.552Z,14.10
2022-12-20T03:58:37.955Z,12.27
2022-12-20T04:01:19.747Z,12.53
2022-12-20T04:03:46.372Z,10.60
2022-12-20T04:06:12.850Z,11.80
2022-12-20T04:08:39.265Z,10.53
2022-12-20T04:11:17.917Z,10.10
2022-12-20T04:13:48.187Z,13.90
2022-12-20T04:16:16.688Z,11.73
2022-12-20T04:18:43.447Z,14.10
2022-12-20T04:21:11.828Z,10.77
2022-12-20T04:23:39.544Z,10.37
2022-12-20T04:26:07.492Z,9.30
2022-12-20T04:28:34.590Z,10.43
2022-12-20T04:31:01.294Z,10.00
2022-12-20T04:33:28.959Z,11.03
2022-12-20T04:35:55.517Z,11.03
2022-12-20T04:38:22.381Z,9.63
2022-12-20T04:40:50.133Z,9.77
2022-12-20T04:43:16.857Z,12.73
2022-12-20T04:45:44.229Z,11.70
2022-12-20T04:48:46.285Z,10.03
2022-12-20T04:50:57.883Z,12.40
2022-12-20T04:53:42.768Z,11.13
2022-12-20T04:56:09.223Z,10.47
2022-12-20T04:58:35.723Z,10.50
2022-12-20T05:01:02.146Z,12.97
2022-12-20T05:03:28.580Z,11.90
2022-12-20T05:05:55.063Z,10.23
2022-12-20T05:08:21.498Z,11.50
2022-12-20T05:10:48.710Z,13.13
2022-12-20T05:13:15.449Z,11.10
2022-12-20T05:15:42.465Z,13.53
2022-12-20T05:18:09.861Z,16.63
2022-12-20T05:20:36.681Z,11.83
2022-12-20T05:23:21.739Z,12.60
2022-12-20T05:26:09.980Z,14.73
2022-12-20T05:28:36.840Z,12.43
2022-12-20T05:31:03.492Z,11.97
2022-12-20T05:33:33.964Z,11.37
2022-12-20T05:36:00.883Z,12.07
2022-12-20T05:38:27.443Z,11.53
2022-12-20T05:40:53.859Z,12.63
2022-12-20T05:43:20.836Z,12.40
2022-12-20T05:45:48.525Z,10.90
2022-12-20T05:48:15.929Z,13.07
2022-12-20T05:50:44.143Z,10.77
2022-12-20T05:53:12.302Z,12.07
2022-12-20T05:55:40.452Z,10.03
2022-12-20T05:58:07.987Z,11.80
2022-12-20T06:00:34.414Z,8.60
2022-12-20T06:03:01.021Z,10.90
2022-12-20T06:05:27.615Z,10.03
2022-12-20T06:07:54.056Z,9.90
2022-12-20T06:10:20.512Z,11.23
2022-12-20T06:12:46.935Z,11.33
2022-12-20T06:15:15.482Z,8.87
2022-12-20T06:17:42.403Z,11.68
2022-12-20T06:20:09.202Z,10.13
2022-12-20T06:22:37.478Z,11.20
2022-12-20T06:25:04.847Z,12.77
2022-12-20T06:27:31.353Z,9.93
2022-12-20T06:29:57.760Z,10.40
2022-12-20T06:32:24.169Z,12.87
2022-12-20T06:34:51.199Z,10.97
2022-12-20T06:37:17.618Z,9.73
2022-12-20T06:39:44.087Z,9.63
2022-12-20T06:42:10.533Z,11.43
2022-12-20T06:44:37.096Z,10.40
2022-12-20T06:47:03.820Z,11.93
2022-12-20T06:49:30.436Z,10.80
2022-12-20T06:51:56.858Z,9.27
2022-12-20T06:54:23.314Z,20.00
2022-12-20T06:56:49.753Z,16.47
2022-12-20T06:59:16.237Z,15.98
2022-12-20T07:01:42.796Z,14.80
2022-12-20T07:04:09.328Z,9.93
2022-12-20T07:06:35.769Z,11.03
2022-12-20T07:09:02.506Z,9.53
2022-12-20T07:11:28.953Z,8.50
2022-12-20T07:13:56.828Z,9.60
2022-12-20T07:16:23.398Z,11.17
2022-12-20T07:18:53.578Z,8.00
2022-12-20T07:21:20.715Z,10.80
2022-12-20T07:23:47.724Z,10.87
2022-12-20T07:26:14.713Z,8.10
2022-12-20T07:28:42.181Z,10.47
2022-12-20T07:31:08.616Z,9.25
2022-12-20T07:33:35.038Z,9.25
2022-12-20T07:36:06.768Z,12.13
2022-12-20T07:38:35.471Z,9.20
2022-12-20T07:41:08.084Z,11.50
2022-12-20T07:43:34.943Z,11.65
2022-12-20T07:46:01.530Z,10.50
2022-12-20T07:48:28.044Z,10.97
2022-12-20T07:51:01.792Z,10.63
2022-12-20T07:53:29.311Z,10.07
2022-12-20T07:55:56.516Z,14.47
2022-12-20T07:58:23.028Z,13.67
2022-12-20T08:00:49.745Z,9.40
2022-12-20T08:03:19.874Z,12.83
2022-12-20T08:05:48.960Z,12.63
2022-12-20T08:08:16.352Z,11.47
2022-12-20T08:10:43.143Z,8.93
2022-12-20T08:13:09.711Z,9.93
2022-12-20T08:15:36.717Z,10.80
2022-12-20T08:18:03.378Z,10.37
2022-12-20T08:20:29.817Z,11.70
2022-12-20T08:22:56.234Z,11.27
2022-12-20T08:25:22.837Z,10.87
2022-12-20T08:27:49.679Z,10.73
2022-12-20T08:30:16.217Z,12.33
2022-12-20T08:32:43.061Z,10.37
2022-12-20T08:35:10.575Z,12.10
2022-12-20T08:37:37.157Z,14.15
2022-12-20T08:40:04.131Z,10.67
2022-12-20T08:42:30.563Z,10.48
2022-12-20T08:44:56.972Z,10.07
2022-12-20T08:47:23.405Z,10.73
2022-12-20T08:49:49.825Z,11.57
2022-12-20T08:52:16.248Z,8.53
2022-12-20T08:54:42.738Z,10.13
2022-12-20T08:57:09.314Z,7.87
2022-12-20T08:59:35.721Z,9.77
2022-12-20T09:02:02.223Z,9.20
2022-12-20T09:04:28.841Z,11.07
2022-12-20T09:06:55.261Z,10.70
2022-12-20T09:09:21.727Z,11.23
2022-12-20T09:11:48.190Z,10.70
2022-12-20T09:14:14.597Z,10.65
2022-12-20T09:16:41.438Z,12.80
2022-12-20T09:19:07.881Z,10.33
2022-12-20T09:21:34.738Z,13.10
2022-12-20T09:24:01.214Z,12.23
2022-12-20T09:26:27.650Z,13.20
2022-12-20T09:28:54.141Z,11.23
2022-12-20T09:31:23.006Z,10.07
2022-12-20T09:33:49.823Z,10.70
2022-12-20T09:36:20.434Z,11.50
2022-12-20T09:38:47.369Z,16.23
2022-12-20T09:41:27.943Z,13.87
2022-12-20T09:43:54.399Z,11.93
2022-12-20T09:46:21.502Z,13.10
2022-12-20T09:48:48.329Z,15.33
2022-12-20T09:51:36.627Z,12.00
2022-12-20T09:54:36.967Z,13.73
2022-12-20T09:57:13.072Z,14.10
2022-12-20T09:59:45.923Z,12.50
2022-12-20T10:02:55.182Z,16.88
2022-12-20T10:05:40.611Z,15.90
2022-12-20T10:08:24.676Z,12.23
2022-12-20T10:10:56.506Z,13.77
2022-12-20T10:13:46.867Z,13.30
2022-12-20T10:16:34.615Z,13.70
2022-12-20T10:19:38.866Z,13.27
2022-12-20T10:22:22.881Z,13.73
2022-12-20T10:25:18.233Z,13.23
2022-12-20T10:27:46.223Z,11.10
2022-12-20T10:30:18.455Z,10.70
2022-12-20T10:32:46.999Z,11.88
2022-12-20T10:35:33.903Z,12.10
2022-12-20T10:38:08.695Z,11.73
2022-12-20T10:43:44.647Z,10.87
2022-12-20T10:46:11.727Z,14.90
2022-12-20T10:48:40.964Z,15.27
2022-12-20T10:51:15.330Z,11.70
2022-12-20T10:53:57.750Z,12.07
2022-12-20T10:56:32.589Z,14.23
2022-12-20T10:59:15.173Z,14.93
2022-12-20T11:01:44.599Z,12.38
2022-12-20T11:04:40.618Z,12.30
2022-12-20T11:07:25.859Z,10.20
2022-12-20T11:09:55.000Z,11.03
2022-12-20T11:12:21.568Z,12.80
2022-12-20T11:14:49.293Z,10.67
2022-12-20T11:17:21.456Z,10.95
2022-12-20T11:20:08.082Z,11.98
2022-12-20T11:22:52.166Z,10.97
2022-12-20T11:25:59.968Z,11.33
2022-12-20T11:28:47.769Z,15.53
2022-12-20T11:31:51.380Z,11.32
2022-12-20T11:34:28.880Z,11.10
2022-12-20T11:37:04.840Z,12.18
2022-12-20T11:39:34.160Z,11.20
2022-12-20T11:42:18.862Z,10.83
2022-12-20T11:45:10.351Z,11.63
2022-12-20T11:47:56.028Z,13.73
2022-12-20T11:50:57.540Z,11.27
2022-12-20T11:53:50.992Z,11.13
2022-12-20T11:56:23.977Z,12.40
2022-12-20T11:59:07.487Z,10.33
2022-12-20T12:01:57.784Z,11.50
2022-12-20T12:04:30.522Z,11.23
2022-12-20T12:07:02.440Z,10.63
2022-12-20T12:09:56.165Z,10.97
2022-12-20T12:12:29.714Z,14.10
2022-12-20T12:15:03.768Z,10.60
2022-12-20T12:18:03.692Z,15.07
2022-12-20T12:20:48.319Z,13.47
2022-12-20T12:23:42.451Z,12.03
2022-12-20T12:26:28.003Z,11.38
2022-12-20T12:29:06.195Z,11.20
2022-12-20T12:31:37.221Z,11.68
2022-12-20T12:34:45.424Z,14.20
2022-12-20T12:37:49.729Z,12.77
2022-12-20T12:40:37.590Z,12.43
2022-12-20T12:43:22.119Z,13.30
2022-12-20T12:45:57.440Z,11.25
2022-12-20T12:48:39.875Z,11.35
2022-12-20T12:51:06.901Z,12.10
2022-12-20T12:53:43.082Z,11.07
2022-12-20T12:56:44.930Z,12.65
2022-12-20T12:59:29.384Z,11.60
2022-12-20T13:02:20.538Z,11.00
2022-12-20T13:05:25.930Z,13.27
2022-12-20T13:07:53.237Z,10.18
2022-12-20T13:10:20.163Z,10.57
2022-12-20T13:12:55.474Z,10.43
2022-12-20T13:15:21.837Z,10.35
2022-12-20T13:17:57.959Z,12.05
2022-12-20T13:20:26.407Z,9.90
2022-12-20T13:23:08.092Z,10.70
2022-12-20T13:25:54.765Z,10.88
2022-12-20T13:28:24.080Z,12.15
2022-12-20T13:30:53.679Z,10.52
2022-12-20T13:33:25.682Z,13.43
2022-12-20T13:36:04.232Z,12.90
2022-12-20T13:38:38.819Z,10.60
2022-12-20T13:41:34.217Z,10.70
2022-12-20T13:44:10.686Z,12.45
2022-12-20T13:47:01.724Z,11.77
2022-12-20T13:49:32.255Z,13.27
2022-12-20T13:52:10.905Z,12.68
2022-12-20T13:54:42.437Z,12.93
2022-12-20T13:57:11.026Z,12.83
2022-12-20T13:59:37.454Z,12.63
2022-12-20T14:02:09.289Z,12.18
2022-12-20T14:04:44.322Z,13.15
2022-12-20T14:07:14.530Z,13.13
2022-12-20T14:09:45.164Z,11.38
2022-12-20T14:12:23.289Z,11.02
2022-12-20T14:14:53.198Z,12.07
2022-12-20T14:17:28.590Z,12.47
2022-12-20T14:20:15.444Z,11.95
2022-12-20T14:23:02.576Z,11.68
2022-12-20T14:25:36.379Z,13.13
2022-12-20T14:28:03.303Z,12.20
2022-12-20T14:30:32.329Z,12.32
2022-12-20T14:32:58.930Z,12.57
2022-12-20T14:35:25.833Z,11.27
2022-12-20T14:37:58.015Z,11.07
2022-12-20T14:40:24.585Z,14.05
2022-12-20T14:42:51.270Z,10.50
2022-12-20T14:45:26.681Z,14.27
2022-12-20T14:47:59.390Z,14.70
2022-12-20T14:50:31.929Z,12.35
2022-12-20T14:52:58.920Z,11.38
2022-12-20T14:55:36.854Z,13.65
2022-12-20T14:58:07.054Z,12.98
2022-12-20T15:00:34.573Z,12.27
2022-12-20T15:03:20.142Z,13.50
2022-12-20T15:05:49.741Z,16.67
2022-12-20T15:08:20.599Z,12.63
2022-12-20T15:10:53.592Z,13.87
2022-12-20T15:13:24.253Z,14.13
2022-12-20T15:15:50.733Z,11.50
2022-12-20T15:18:19.349Z,11.63
2022-12-20T15:20:48.392Z,14.00
2022-12-20T15:23:21.045Z,12.20
2022-12-20T15:25:48.356Z,13.30
2022-12-20T15:28:20.267Z,10.18
2022-12-20T15:30:48.360Z,11.43
2022-12-20T15:33:17.656Z,12.52
2022-12-20T15:35:45.009Z,11.98
2022-12-20T15:38:25.491Z,14.65
2022-12-20T15:41:03.946Z,11.83
2022-12-20T15:43:39.015Z,17.35
2022-12-20T15:46:05.834Z,14.90
2022-12-20T15:48:32.281Z,14.27
2022-12-20T15:50:59.540Z,11.40
2022-12-20T15:53:30.268Z,13.82
2022-12-20T15:55:56.776Z,15.60
2022-12-20T15:58:24.791Z,19.30
2022-12-20T16:00:53.782Z,20.47
2022-12-20T16:03:22.739Z,25.67
2022-12-20T16:05:51.157Z,28.20
2022-12-20T16:08:18.377Z,20.23
2022-12-20T16:10:48.751Z,18.55
2022-12-20T16:13:20.884Z,13.67
2022-12-20T16:15:47.860Z,13.43
2022-12-20T16:18:14.332Z,13.00
2022-12-20T16:20:40.798Z,12.07
2022-12-20T16:23:16.455Z,13.57
2022-12-20T16:25:42.858Z,11.73
2022-12-20T16:28:10.699Z,13.80
2022-12-20T16:30:37.203Z,13.50
2022-12-20T16:33:03.891Z,12.65
2022-12-20T16:35:37.265Z,14.27
2022-12-20T16:38:03.823Z,13.50
2022-12-20T16:40:32.538Z,13.53
2022-12-20T16:43:00.092Z,15.65
2022-12-20T16:45:31.275Z,16.03
2022-12-20T16:47:57.696Z,15.33
2022-12-20T16:50:26.119Z,12.13
2022-12-20T16:52:52.523Z,16.90
2022-12-20T16:55:22.210Z,13.23
2022-12-20T16:57:49.276Z,14.00
2022-12-20T17:00:22.227Z,15.50
2022-12-20T17:02:49.714Z,17.17
2022-12-20T17:05:28.487Z,14.63
2022-12-20T17:07:55.527Z,16.60
2022-12-20T17:10:23.335Z,13.13
2022-12-20T17:12:49.917Z,15.70
2022-12-20T17:15:22.311Z,11.60
2022-12-20T17:17:49.906Z,12.90
2022-12-20T17:20:17.565Z,11.87
2022-12-20T17:25:30.257Z,11.30
2022-12-20T17:27:56.879Z,9.20
2022-12-20T17:30:24.853Z,13.73
2022-12-20T17:32:53.271Z,10.90
2022-12-20T17:35:25.916Z,10.60
2022-12-20T17:37:54.060Z,10.57
2022-12-20T17:40:20.507Z,11.97
2022-12-20T17:42:46.948Z,13.90
2022-12-20T17:45:36.043Z,12.35
2022-12-20T17:48:02.563Z,10.90
2022-12-20T17:50:29.029Z,12.10
2022-12-20T17:52:55.515Z,11.07
2022-12-20T17:55:27.147Z,13.53
2022-12-20T17:57:54.424Z,13.40
2022-12-20T18:00:26.492Z,12.27
2022-12-20T18:02:53.906Z,11.90
2022-12-20T18:05:21.378Z,13.03
2022-12-20T18:07:52.365Z,12.85
2022-12-20T18:10:18.951Z,13.67
2022-12-20T18:12:45.471Z,11.30
2022-12-20T18:15:11.950Z,16.87
2022-12-20T18:17:38.597Z,13.30
2022-12-20T18:20:06.857Z,11.70
2022-12-20T18:22:36.711Z,15.97
2022-12-20T18:25:06.848Z,11.93
2022-12-20T18:27:38.331Z,12.03
2022-12-20T18:30:05.480Z,10.40
2022-12-20T18:32:31.904Z,11.63
2022-12-20T18:34:58.443Z,16.10
2022-12-20T18:37:25.808Z,14.67
2022-12-20T18:39:52.201Z,14.87
2022-12-20T18:42:18.608Z,15.33
2022-12-20T18:44:45.008Z,22.40
2022-12-20T18:47:11.423Z,24.70
2022-12-20T18:49:37.810Z,21.52
2022-12-20T18:52:04.257Z,18.97
2022-12-20T18:54:30.675Z,16.63
2022-12-20T18:56:57.394Z,12.43
2022-12-20T18:59:23.820Z,10.87
2022-12-20T19:01:50.364Z,13.57
2022-12-20T19:04:22.437Z,12.17
2022-12-20T19:06:50.858Z,15.37
2022-12-20T19:09:17.271Z,14.33
2022-12-20T19:11:43.730Z,14.90
2022-12-20T19:14:11.565Z,16.07
2022-12-20T19:16:39.587Z,16.23
2022-12-20T19:19:08.275Z,13.93
2022-12-20T19:21:35.996Z,14.10
2022-12-20T19:24:05.482Z,12.97
2022-12-20T19:26:31.918Z,12.30
2022-12-20T19:28:58.319Z,12.13
2022-12-20T19:31:27.709Z,11.57
2022-12-20T19:34:05.485Z,12.70
2022-12-20T19:36:39.018Z,13.30
2022-12-20T19:39:07.684Z,12.57
2022-12-20T19:41:35.580Z,15.80
2022-12-20T19:44:02.763Z,12.10
2022-12-20T19:46:30.324Z,11.43
2022-12-20T19:48:58.153Z,13.60
2022-12-20T19:51:25.800Z,11.00
2022-12-20T19:53:53.586Z,12.70
2022-12-20T19:56:23.173Z,12.17
2022-12-20T19:58:49.621Z,11.83
2022-12-20T20:01:16.243Z,12.37
2022-12-20T20:03:42.855Z,11.10
2022-12-20T20:06:09.521Z,13.23
2022-12-20T20:08:36.044Z,12.00
2022-12-20T20:11:09.148Z,10.73
2022-12-20T20:13:36.067Z,12.03
2022-12-20T20:16:03.152Z,13.80
2022-12-20T20:18:30.682Z,14.37
2022-12-20T20:20:57.308Z,10.57
2022-12-20T20:23:24.078Z,9.53
2022-12-20T20:25:53.330Z,12.13
2022-12-20T20:28:20.347Z,10.47
2022-12-20T20:30:49.585Z,14.77
2022-12-20T20:33:16.650Z,15.03
2022-12-20T20:35:43.085Z,14.67
2022-12-20T20:38:11.460Z,10.97
2022-12-20T20:40:39.317Z,11.63
2022-12-20T20:43:05.736Z,11.93
2022-12-20T20:45:32.156Z,12.60
2022-12-20T20:48:02.626Z,12.83
2022-12-20T20:50:32.378Z,12.70
2022-12-20T20:52:59.672Z,13.43
2022-12-20T20:55:26.146Z,12.87
2022-12-20T20:57:52.573Z,12.90
2022-12-20T21:00:19.212Z,13.17
2022-12-20T21:02:46.093Z,12.60
2022-12-20T21:07:59.254Z,11.60
2022-12-20T21:10:27.020Z,13.17
2022-12-20T21:12:53.665Z,12.37
2022-12-20T21:15:22.931Z,11.97
2022-12-20T21:17:50.296Z,11.63
2022-12-20T21:20:20.620Z,14.07
2022-12-20T21:22:50.388Z,13.30
2022-12-20T21:25:17.230Z,12.33
2022-12-20T21:27:43.680Z,13.27
2022-12-20T21:30:10.375Z,16.03
2022-12-20T21:32:36.865Z,12.27
2022-12-20T21:35:03.303Z,13.33
2022-12-20T21:37:30.257Z,13.53
2022-12-20T21:39:56.662Z,11.50
2022-12-20T21:42:23.095Z,11.87
2022-12-20T21:44:49.501Z,15.20
2022-12-20T21:47:15.922Z,13.60
2022-12-20T21:49:42.325Z,14.03
2022-12-20T21:52:08.769Z,15.00
2022-12-20T21:54:35.226Z,13.37
2022-12-20T21:57:01.697Z,15.83
2022-12-20T21:59:28.163Z,11.90
2022-12-20T22:01:54.843Z,11.63
2022-12-20T22:04:21.431Z,11.73
2022-12-20T22:06:47.902Z,13.13
2022-12-20T22:09:14.328Z,13.03
2022-12-20T22:11:41.664Z,16.00
2022-12-20T22:14:08.123Z,11.17
2022-12-20T22:16:37.480Z,13.97
2022-12-20T22:19:04.110Z,14.10
2022-12-20T22:21:32.779Z,14.10
2022-12-20T22:24:00.386Z,12.13
2022-12-20T22:26:29.967Z,10.53
2022-12-20T22:28:58.887Z,13.83
2022-12-20T22:31:26.016Z,10.77
2022-12-20T22:33:53.661Z,12.30
2022-12-20T22:36:20.608Z,13.30
2022-12-20T22:38:48.166Z,10.20
2022-12-20T22:41:17.465Z,10.37
2022-12-20T22:43:44.990Z,13.07
2022-12-20T22:46:12.733Z,11.50
2022-12-20T22:48:40.189Z,9.83
2022-12-20T22:51:19.916Z,11.27
2022-12-20T22:53:47.583Z,11.97
2022-12-20T22:56:15.221Z,11.97
2022-12-20T22:58:41.996Z,10.23
2022-12-20T23:01:11.785Z,10.50
2022-12-20T23:03:38.366Z,9.80
2022-12-20T23:06:06.343Z,10.07
2022-12-20T23:08:35.170Z,9.37
2022-12-20T23:11:20.895Z,8.30
2022-12-20T23:14:05.913Z,8.87
2022-12-20T23:16:32.493Z,7.53
2022-12-20T23:19:01.015Z,7.87
2022-12-20T23:21:46.727Z,9.07
2022-12-20T23:24:13.728Z,7.90
2022-12-20T23:26:40.580Z,7.17
2022-12-20T23:29:08.185Z,7.93
2022-12-20T23:31:35.089Z,7.20
2022-12-20T23:34:01.835Z,6.67
2022-12-20T23:36:29.055Z,7.63
2022-12-20T23:38:56.340Z,7.30
2022-12-20T23:41:22.775Z,8.82
2022-12-20T23:43:49.314Z,6.60
2022-12-20T23:46:17.531Z,10.00
2022-12-20T23:48:43.983Z,7.53
2022-12-20T23:51:10.749Z,8.17
2022-12-20T23:53:37.564Z,10.03
2022-12-20T23:56:13.429Z,9.97
2022-12-20T23:58:39.856Z,8.40
